Time;durP1;ratioP1;P1;durP2;ratioP2;P2;SDS_P1;SDS_P2;PMS_P1;PMS_P2;Temp;Humidity;BMP_temperature;BMP_pressure;BME280_temperature;BME280_humidity;BME280_pressure;Samples;Min_cycle;Max_cycle;Signal;HPM_P1;HPM_P2
2022/05/08 00:01:45;;;;;;;4.63;3.40;;;;;;;12.32;46.81;95366.88;5116560;28;20202;-64
2022/05/08 00:04:12;;;;;;;3.92;3.10;;;;;;;12.35;46.67;95366.16;5116365;28;20195;-65
2022/05/08 00:06:39;;;;;;;4.78;3.28;;;;;;;12.34;46.69;95369.28;5116955;28;20207;-64
2022/05/08 00:09:05;;;;;;;3.35;3.05;;;;;;;12.27;46.72;95365.19;5117425;28;20517;-64
2022/05/08 00:11:34;;;;;;;4.13;2.97;;;;;;;12.25;46.83;95361.97;5116824;28;20204;-64
2022/05/08 00:14:01;;;;;;;4.03;3.28;;;;;;;12.14;46.97;95360.88;5116284;28;20215;-64
2022/05/08 00:16:28;;;;;;;6.45;3.58;;;;;;;12.11;47.05;95361.59;5117531;28;20188;-64
2022/05/08 00:18:55;;;;;;;6.90;3.53;;;;;;;12.09;46.84;95365.88;5117740;28;20187;-64
2022/05/08 00:21:22;;;;;;;3.83;3.42;;;;;;;12.06;47.13;95363.84;5116717;28;20263;-64
2022/05/08 00:23:49;;;;;;;4.72;3.40;;;;;;;12.00;47.35;95364.09;5116765;28;20194;-64
2022/05/08 00:26:17;;;;;;;4.03;3.63;;;;;;;11.97;47.56;95362.03;5117385;28;20199;-64
2022/05/08 00:28:45;;;;;;;3.78;3.17;;;;;;;11.94;47.18;95367.44;5117816;28;20179;-64
2022/05/08 00:31:12;;;;;;;3.78;3.38;;;;;;;11.84;47.53;95371.56;5116385;28;20211;-64
2022/05/08 00:33:39;;;;;;;5.75;3.65;;;;;;;11.79;47.48;95372.56;5116584;28;20228;-64
2022/05/08 00:36:07;;;;;;;5.03;3.20;;;;;;;11.77;47.72;95369.38;5116569;28;20203;-65
2022/05/08 00:38:34;;;;;;;5.53;3.28;;;;;;;11.79;47.49;95377.28;5116672;28;20250;-64
2022/05/08 00:41:01;;;;;;;3.83;3.42;;;;;;;11.75;47.65;95374.44;5115829;28;20206;-64
2022/05/08 00:43:33;;;;;;;4.85;3.05;;;;;;;11.72;48.25;95366.84;5116087;28;20190;-64
2022/05/08 00:46:04;;;;;;;4.60;2.92;;;;;;;11.71;48.23;95375.50;5116518;28;20199;-64
2022/05/08 00:48:31;;;;;;;3.85;3.05;;;;;;;11.65;48.17;95366.66;5099179;28;20195;-64
2022/05/08 00:50:59;;;;;;;5.22;3.30;;;;;;;11.55;48.33;95367.97;5115518;28;20188;-64
2022/05/08 00:53:28;;;;;;;3.22;2.92;;;;;;;11.53;48.12;95373.03;5115372;28;20315;-64
2022/05/08 00:55:56;;;;;;;4.47;3.15;;;;;;;11.49;48.11;95366.63;5115256;28;20257;-64
2022/05/08 00:58:23;;;;;;;3.97;3.03;;;;;;;11.45;48.89;95367.66;5115860;28;20187;-64
2022/05/08 01:00:50;;;;;;;4.05;3.05;;;;;;;11.42;48.32;95374.69;5116107;28;20191;-64
2022/05/08 01:03:18;;;;;;;5.55;2.95;;;;;;;11.40;48.63;95374.25;5115186;28;20196;-63
2022/05/08 01:05:45;;;;;;;4.57;3.10;;;;;;;11.38;48.56;95373.00;5116092;28;20184;-63
2022/05/08 01:08:13;;;;;;;3.67;3.38;;;;;;;11.32;49.21;95366.91;5115893;28;20274;-63
2022/05/08 01:10:40;;;;;;;4.78;3.20;;;;;;;11.31;49.21;95368.88;5116230;28;20195;-64
2022/05/08 01:13:07;;;;;;;6.15;3.22;;;;;;;11.27;49.92;95367.16;5116192;28;20212;-64
2022/05/08 01:15:41;;;;;;;3.22;2.92;;;;;;;11.24;49.79;95376.13;5116012;28;20191;-64
2022/05/08 01:18:08;;;;;;;3.53;3.22;;;;;;;11.22;49.25;95364.63;5115307;28;20204;-64
2022/05/08 01:20:37;;;;;;;3.22;2.90;;;;;;;11.17;49.59;95365.69;5115398;28;20535;-64
2022/05/08 01:23:06;;;;;;;3.28;2.80;;;;;;;11.14;49.93;95365.56;5115142;28;20199;-64
2022/05/08 01:25:34;;;;;;;4.55;2.90;;;;;;;11.13;49.61;95369.50;5115258;28;20199;-64
2022/05/08 01:28:04;;;;;;;3.80;3.00;;;;;;;11.03;49.52;95357.78;5115950;28;20180;-64
2022/05/08 01:30:31;;;;;;;5.15;2.92;;;;;;;11.00;49.45;95366.78;5116187;28;20241;-64
2022/05/08 01:33:00;;;;;;;4.82;3.13;;;;;;;11.01;49.68;95359.28;5117101;28;20204;-64
2022/05/08 01:35:28;;;;;;;7.07;3.55;;;;;;;10.97;49.87;95361.16;5119494;28;20252;-64
2022/05/08 01:37:55;;;;;;;3.80;3.20;;;;;;;10.97;49.35;95350.91;5120557;28;20196;-64
2022/05/08 01:40:24;;;;;;;3.67;2.92;;;;;;;10.90;50.00;95353.44;5079241;28;20208;-64
2022/05/08 01:42:51;;;;;;;4.20;3.15;;;;;;;10.83;49.73;95348.50;5079518;28;20177;-64
2022/05/08 01:45:18;;;;;;;4.88;3.22;;;;;;;10.85;49.56;95350.91;5079999;28;20208;-64
2022/05/08 01:50:29;;;;;;;4.55;3.25;;;;;;;10.87;49.67;95347.81;5078365;28;20197;-64
2022/05/08 01:52:56;;;;;;;5.68;2.90;;;;;;;10.88;50.71;95350.22;5078538;28;20193;-64
2022/05/08 01:55:24;;;;;;;5.22;3.00;;;;;;;10.84;51.56;95355.63;5078648;28;20197;-64
2022/05/08 01:57:53;;;;;;;6.53;3.60;;;;;;;10.80;51.87;95353.94;5079250;28;20196;-64
2022/05/08 02:00:20;;;;;;;6.28;3.92;;;;;;;10.76;52.15;95355.78;5078640;28;20208;-64
2022/05/08 02:02:48;;;;;;;5.10;3.90;;;;;;;10.72;52.36;95349.34;5078824;28;20189;-64
2022/05/08 02:05:15;;;;;;;5.68;3.33;;;;;;;10.69;51.81;95350.84;5078294;28;20279;-64
2022/05/08 02:07:43;;;;;;;3.53;3.20;;;;;;;10.66;51.79;95350.72;5079410;28;20185;-64
2022/05/08 02:10:10;;;;;;;4.78;4.05;;;;;;;10.59;52.01;95348.53;5079461;28;20204;-63
2022/05/08 02:12:38;;;;;;;6.82;4.50;;;;;;;10.54;51.97;95354.31;5078651;28;20181;-63
2022/05/08 02:15:07;;;;;;;6.47;4.00;;;;;;;10.51;51.88;95352.22;5078321;28;20216;-63
2022/05/08 02:17:34;;;;;;;4.65;3.83;;;;;;;10.48;52.26;95353.72;5079239;28;20181;-63
2022/05/08 02:20:00;;;;;;;5.75;3.72;;;;;;;10.40;52.01;95354.66;5079199;28;20197;-63
2022/05/08 02:22:27;;;;;;;6.38;4.32;;;;;;;10.29;51.95;95361.75;5078539;28;20193;-64
2022/05/08 02:24:54;;;;;;;5.10;4.60;;;;;;;10.29;51.97;95348.78;5077611;28;20197;-64
2022/05/08 02:27:21;;;;;;;5.13;4.32;;;;;;;10.28;51.87;95349.94;5078291;28;20197;-64
2022/05/08 02:29:50;;;;;;;5.63;4.30;;;;;;;10.25;51.78;95356.13;5078662;28;20197;-64
2022/05/08 02:32:16;;;;;;;6.70;4.55;;;;;;;10.22;52.60;95350.47;5078750;28;20195;-64
2022/05/08 02:34:44;;;;;;;8.07;4.60;;;;;;;10.21;52.89;95357.16;5077373;28;20224;-64
2022/05/08 02:37:11;;;;;;;4.35;3.95;;;;;;;10.19;52.58;95353.91;5078661;28;20192;-64
2022/05/08 02:39:37;;;;;;;4.90;3.88;;;;;;;10.17;52.67;95357.03;5107293;28;20242;-64
2022/05/08 02:42:06;;;;;;;6.50;3.80;;;;;;;10.14;53.59;95363.22;5119160;28;20200;-64
2022/05/08 02:44:32;;;;;;;6.53;3.78;;;;;;;10.11;53.64;95350.91;5118471;28;20184;-64
2022/05/08 02:47:01;;;;;;;4.57;3.67;;;;;;;10.10;53.78;95349.31;5118274;28;20615;-64
2022/05/08 02:49:28;;;;;;;4.88;3.58;;;;;;;10.08;53.04;95351.59;5119105;28;20199;-64
2022/05/08 02:51:55;;;;;;;5.13;3.85;;;;;;;10.06;52.87;95353.91;5118853;28;20184;-64
2022/05/08 02:54:22;;;;;;;5.65;3.78;;;;;;;10.06;51.78;95351.16;5119352;28;20208;-64
2022/05/08 02:59:32;;;;;;;4.50;3.83;;;;;;;10.03;53.19;95349.09;5117827;28;20200;-64
2022/05/08 03:02:00;;;;;;;4.10;3.63;;;;;;;9.97;52.35;95361.47;5118070;28;20210;-64
2022/05/08 03:04:27;;;;;;;7.93;3.80;;;;;;;9.96;52.41;95356.31;5118499;28;20188;-64
2022/05/08 03:06:55;;;;;;;5.55;4.07;;;;;;;9.96;51.91;95353.56;5119528;28;20180;-64
2022/05/08 03:09:21;;;;;;;4.53;3.70;;;;;;;9.94;51.99;95361.34;5119296;28;20180;-64
2022/05/08 03:11:48;;;;;;;6.18;3.67;;;;;;;9.88;52.22;95360.78;5118893;28;20206;-64
2022/05/08 03:14:15;;;;;;;5.22;3.90;;;;;;;9.82;51.96;95364.88;5118567;28;20237;-64
2022/05/08 03:16:42;;;;;;;7.25;5.40;;;;;;;9.77;51.85;95359.59;5117666;28;20203;-64
2022/05/08 03:19:10;;;;;;;4.53;4.10;;;;;;;9.75;51.80;95359.91;5118815;28;20249;-64
2022/05/08 03:21:37;;;;;;;6.50;4.32;;;;;;;9.83;52.32;95369.25;5118907;28;20180;-64
2022/05/08 03:24:04;;;;;;;5.30;3.95;;;;;;;9.83;52.58;95366.47;5118368;28;20183;-64
2022/05/08 03:26:31;;;;;;;4.25;3.85;;;;;;;9.84;52.60;95365.31;5118170;28;20188;-64
2022/05/08 03:28:59;;;;;;;5.25;3.90;;;;;;;9.84;52.24;95368.09;5118031;28;20252;-64
2022/05/08 03:31:25;;;;;;;5.18;4.10;;;;;;;9.79;52.94;95365.56;5117420;28;20223;-64
2022/05/08 03:33:52;;;;;;;5.25;4.15;;;;;;;9.80;53.86;95379.00;5118575;28;20635;-64
2022/05/08 03:36:21;;;;;;;5.22;4.70;;;;;;;9.79;53.57;95376.56;5117786;28;20715;-64
2022/05/08 03:38:48;;;;;;;6.35;4.57;;;;;;;9.78;54.53;95372.22;5116796;28;20239;-64
2022/05/08 03:41:16;;;;;;;5.85;4.43;;;;;;;9.73;54.63;95378.75;5117152;28;20204;-64
2022/05/08 03:43:43;;;;;;;8.05;4.72;;;;;;;9.69;54.05;95375.03;5117164;28;20187;-64
2022/05/08 03:46:10;;;;;;;6.70;4.60;;;;;;;9.70;54.78;95371.16;5117913;28;20191;-64
2022/05/08 03:48:37;;;;;;;6.38;4.90;;;;;;;9.68;53.71;95384.47;5116783;28;20203;-64
2022/05/08 03:51:04;;;;;;;6.30;5.50;;;;;;;9.65;54.37;95380.44;5116787;28;20211;-64
2022/05/08 03:53:32;;;;;;;5.65;5.15;;;;;;;9.66;54.30;95384.00;5116679;28;20622;-64
2022/05/08 03:55:59;;;;;;;8.18;5.25;;;;;;;9.62;54.54;95389.41;5116726;28;20180;-64
2022/05/08 03:58:27;;;;;;;7.15;5.15;;;;;;;9.57;54.55;95384.06;5117198;28;20203;-64
2022/05/08 04:00:54;;;;;;;6.10;5.50;;;;;;;9.58;54.99;95382.94;5117392;28;20203;-64
2022/05/08 04:03:21;;;;;;;5.85;5.20;;;;;;;9.56;54.29;95387.97;5116668;28;20198;-64
2022/05/08 04:05:48;;;;;;;7.78;5.40;;;;;;;9.55;54.75;95385.56;5117698;28;20180;-64
2022/05/08 04:08:15;;;;;;;5.25;4.53;;;;;;;9.56;54.49;95389.94;5118248;28;20184;-64
2022/05/08 04:10:43;;;;;;;7.22;4.93;;;;;;;9.54;54.63;95387.50;5117903;28;20184;-64
2022/05/08 04:13:10;;;;;;;5.18;4.60;;;;;;;9.57;53.69;95391.53;5117897;28;20190;-64
2022/05/08 04:18:21;;;;;;;5.18;4.57;;;;;;;9.54;53.92;95390.25;5116633;28;20294;-64
2022/05/08 04:20:48;;;;;;;7.25;5.63;;;;;;;9.50;54.10;95396.78;5116724;28;20199;-64
2022/05/08 04:26:01;;;;;;;7.70;4.80;;;;;;;9.59;52.97;95395.56;5115866;28;20631;-64
2022/05/08 04:28:29;;;;;;;5.93;4.50;;;;;;;9.63;53.97;95398.47;5116375;28;20199;-64
2022/05/08 04:30:56;;;;;;;7.07;4.85;;;;;;;9.60;53.68;95404.63;5116881;28;20525;-64
2022/05/08 04:33:23;;;;;;;6.70;4.78;;;;;;;9.59;54.13;95406.59;5115671;28;20210;-64
2022/05/08 04:35:50;;;;;;;4.72;4.28;;;;;;;9.56;53.73;95400.94;5115680;28;20223;-64
2022/05/08 04:38:17;;;;;;;5.38;4.25;;;;;;;9.56;54.97;95407.25;5116043;28;20258;-64
2022/05/08 04:40:44;;;;;;;7.40;4.47;;;;;;;9.57;54.49;95408.06;5116752;28;20184;-64
2022/05/08 04:43:12;;;;;;;4.90;4.40;;;;;;;9.64;53.71;95403.63;5116603;28;20176;-64
2022/05/08 04:45:39;;;;;;;6.18;5.18;;;;;;;9.66;55.06;95406.03;5116019;28;20205;-64
2022/05/08 04:48:06;;;;;;;6.07;4.22;;;;;;;9.69;53.10;95402.59;5116303;28;20200;-64
2022/05/08 04:50:33;;;;;;;7.53;4.63;;;;;;;9.75;53.75;95400.44;5115897;28;20199;-64
2022/05/08 04:53:00;;;;;;;5.07;4.57;;;;;;;9.77;55.03;95400.91;5115757;28;20217;-65
2022/05/08 04:55:27;;;;;;;5.57;4.60;;;;;;;9.83;54.67;95411.34;5116256;28;20235;-65
2022/05/08 04:57:54;;;;;;;5.28;4.78;;;;;;;9.88;52.67;95408.41;5116099;28;20206;-64
2022/05/08 05:00:22;;;;;;;5.90;5.10;;;;;;;9.95;53.41;95407.84;5115605;28;20196;-64
2022/05/08 05:02:49;;;;;;;5.28;4.78;;;;;;;9.91;53.26;95406.09;5115119;28;20196;-64
2022/05/08 05:05:16;;;;;;;5.60;4.93;;;;;;;9.82;53.33;95414.47;5115163;28;20203;-64
2022/05/08 05:07:43;;;;;;;6.63;4.97;;;;;;;9.87;51.32;95420.56;5117034;28;20194;-64
2022/05/08 05:10:11;;;;;;;7.72;5.07;;;;;;;9.91;52.79;95401.38;5120556;28;20180;-64
2022/05/08 05:12:37;;;;;;;5.85;4.78;;;;;;;9.88;53.82;95407.59;5119865;28;20207;-64
2022/05/08 05:15:05;;;;;;;5.70;5.13;;;;;;;9.87;52.80;95415.03;5119462;28;20214;-68
2022/05/08 05:17:34;;;;;;;7.78;4.90;;;;;;;9.95;52.88;95409.78;5120021;28;20532;-64
2022/05/08 05:20:01;;;;;;;6.00;5.40;;;;;;;10.00;52.76;95404.88;5119797;28;20199;-64
2022/05/08 05:22:28;;;;;;;5.72;4.97;;;;;;;10.10;51.16;95411.91;5119441;28;20187;-67
2022/05/08 05:24:56;;;;;;;5.22;4.45;;;;;;;10.17;50.68;95409.41;5119923;28;20202;-67
2022/05/08 05:27:23;;;;;;;5.30;4.13;;;;;;;10.25;48.39;95410.44;5120228;28;20501;-68
2022/05/08 05:29:50;;;;;;;4.85;4.13;;;;;;;10.30;47.87;95407.47;5120200;28;20188;-67
2022/05/08 05:32:17;;;;;;;4.25;3.85;;;;;;;10.35;47.79;95404.50;5120050;28;20183;-66
2022/05/08 05:34:45;;;;;;;6.05;4.88;;;;;;;10.40;50.05;95415.31;5119707;28;20223;-66
2022/05/08 05:37:12;;;;;;;4.85;4.32;;;;;;;10.38;48.67;95411.28;5120370;28;20180;-66
2022/05/08 05:39:40;;;;;;;3.85;3.45;;;;;;;10.46;48.00;95408.44;5118964;28;20239;-66
2022/05/08 05:42:09;;;;;;;5.90;4.03;;;;;;;10.52;46.94;95409.78;5119772;28;20207;-66
2022/05/08 05:44:36;;;;;;;5.70;4.30;;;;;;;10.56;48.44;95412.66;5119421;28;20199;-66
2022/05/08 05:49:49;;;;;;;4.45;4.05;;;;;;;10.58;47.06;95413.94;5120368;28;20192;-66
2022/05/08 05:52:16;;;;;;;7.30;4.13;;;;;;;10.65;46.97;95407.06;5120136;28;20188;-66
2022/05/08 05:54:46;;;;;;;5.53;4.03;;;;;;;10.70;46.51;95412.31;5119095;28;20215;-66
2022/05/08 05:57:12;;;;;;;5.97;4.10;;;;;;;10.78;46.50;95403.94;5119450;28;20257;-66
2022/05/08 05:59:39;;;;;;;7.25;4.05;;;;;;;10.79;47.02;95408.31;5120205;28;20180;-66
2022/05/08 06:02:11;;;;;;;4.68;4.10;;;;;;;10.80;48.35;95403.59;5120637;28;20188;-66
2022/05/08 06:04:40;;;;;;;4.70;4.20;;;;;;;10.78;47.14;95397.59;5120866;28;20180;-66
2022/05/08 06:07:08;;;;;;;6.22;4.20;;;;;;;10.81;47.26;95394.16;5119483;28;20202;-66
2022/05/08 06:09:35;;;;;;;6.45;4.53;;;;;;;10.82;47.06;95387.47;5120416;28;20198;-66
2022/05/08 06:12:03;;;;;;;6.25;4.60;;;;;;;10.88;46.20;95388.84;5120093;28;20184;-66
2022/05/08 06:14:30;;;;;;;5.15;4.65;;;;;;;10.97;45.73;95391.50;5119863;28;20241;-66
2022/05/08 06:16:58;;;;;;;10.48;4.57;;;;;;;10.98;46.22;95387.59;5119414;28;20192;-66
2022/05/08 06:19:31;;;;;;;4.82;4.38;;;;;;;11.00;46.52;95394.38;5118119;28;20260;-66
2022/05/08 06:21:58;;;;;;;5.13;4.03;;;;;;;11.04;46.37;95388.97;5102112;28;20220;-66
2022/05/08 06:24:27;;;;;;;4.85;4.25;;;;;;;11.14;46.11;95398.69;5119593;28;20206;-66
2022/05/08 06:26:54;;;;;;;4.50;4.10;;;;;;;11.23;45.83;95391.91;5119079;28;20192;-66
2022/05/08 06:29:21;;;;;;;5.60;4.68;;;;;;;11.29;46.11;95392.44;5119895;28;20181;-66
2022/05/08 06:31:50;;;;;;;5.07;4.22;;;;;;;11.26;46.10;95391.22;5118626;28;20195;-66
2022/05/08 06:34:18;;;;;;;6.20;4.65;;;;;;;11.28;45.30;95383.38;5118425;28;20256;-65
2022/05/08 06:36:45;;;;;;;5.05;4.40;;;;;;;11.31;46.99;95390.16;5118601;28;20211;-65
2022/05/08 06:39:13;;;;;;;4.38;3.97;;;;;;;11.31;46.08;95377.16;5119179;28;20239;-65
2022/05/08 06:41:42;;;;;;;5.20;4.20;;;;;;;11.35;45.06;95376.44;5118856;28;20207;-66
2022/05/08 06:44:09;;;;;;;5.38;4.13;;;;;;;11.40;45.63;95388.06;5119571;28;20180;-66
2022/05/08 06:46:40;;;;;;;6.38;3.90;;;;;;;11.47;46.76;95373.63;5119583;28;20210;-67
2022/05/08 06:49:07;;;;;;;5.03;3.83;;;;;;;11.56;45.36;95383.38;5119449;28;20272;-71
2022/05/08 06:51:35;;;;;;;4.88;3.92;;;;;;;11.58;45.41;95377.50;5117993;28;20595;-67
2022/05/08 06:54:02;;;;;;;3.90;3.50;;;;;;;11.61;45.14;95374.03;5117125;28;20595;-66
2022/05/08 06:56:35;;;;;;;6.00;4.28;;;;;;;11.67;45.29;95369.06;5118260;28;20207;-66
2022/05/08 07:01:51;;;;;;;8.43;4.80;;;;;;;11.79;44.73;95369.81;5118081;28;20267;-65
2022/05/08 07:04:17;;;;;;;5.72;4.82;;;;;;;11.96;46.65;95370.69;5118089;28;20208;-65
2022/05/08 07:06:44;;;;;;;7.82;5.60;;;;;;;12.15;47.90;95375.50;5117664;28;20200;-66
2022/05/08 07:09:13;;;;;;;7.70;5.25;;;;;;;12.22;47.34;95376.50;5117861;28;20191;-71
2022/05/08 07:11:41;;;;;;;5.68;4.03;;;;;;;12.24;46.52;95371.44;5116971;28;20208;-64
2022/05/08 07:14:10;;;;;;;6.15;4.43;;;;;;;12.14;47.62;95366.41;5117109;28;20203;-64
2022/05/08 07:16:38;;;;;;;6.10;5.50;;;;;;;12.10;47.20;95368.28;5118483;28;20203;-64
2022/05/08 07:19:06;;;;;;;4.97;3.78;;;;;;;12.02;47.56;95364.53;5118125;28;20210;-64
2022/05/08 07:21:33;;;;;;;5.50;4.25;;;;;;;11.95;46.93;95363.56;5117073;28;20215;-63
2022/05/08 07:24:00;;;;;;;3.88;3.47;;;;;;;11.94;47.50;95361.94;5117609;28;20295;-64
2022/05/08 07:26:28;;;;;;;5.80;3.85;;;;;;;11.90;47.60;95352.75;5118279;28;20191;-64
2022/05/08 07:28:55;;;;;;;4.72;3.63;;;;;;;12.01;48.05;95356.59;5117399;28;20207;-64
2022/05/08 07:31:29;;;;;;;5.38;4.15;;;;;;;12.08;47.50;95359.53;5116662;28;20191;-63
2022/05/08 07:36:36;;;;;;;5.93;3.80;;;;;;;12.17;47.77;95357.41;5117586;28;20288;-63
2022/05/08 07:39:03;;;;;;;6.05;4.10;;;;;;;12.24;48.01;95359.56;5117797;28;20232;-63
2022/05/08 07:41:30;;;;;;;5.85;4.22;;;;;;;12.35;47.82;95355.09;5117574;28;20194;-63
2022/05/08 07:43:57;;;;;;;4.93;4.43;;;;;;;12.45;47.28;95354.53;5117714;28;20192;-63
2022/05/08 07:46:27;;;;;;;4.07;3.67;;;;;;;12.48;47.58;95350.25;5117075;28;20192;-63
2022/05/08 07:48:54;;;;;;;4.63;3.67;;;;;;;12.48;47.32;95351.06;5117834;28;20184;-63
2022/05/08 07:51:22;;;;;;;7.28;4.40;;;;;;;12.51;46.97;95344.81;5118090;28;20184;-63
2022/05/08 07:53:50;;;;;;;5.50;4.38;;;;;;;12.61;47.59;95340.72;5117662;28;20188;-63
2022/05/08 07:56:19;;;;;;;4.90;3.65;;;;;;;12.74;47.26;95344.16;5117137;28;20203;-63
2022/05/08 07:58:46;;;;;;;3.78;3.42;;;;;;;12.83;48.06;95343.97;5117409;28;20195;-63
2022/05/08 08:01:13;;;;;;;4.75;3.88;;;;;;;12.90;47.34;95338.59;5116886;28;20192;-64
2022/05/08 08:03:46;;;;;;;3.88;3.45;;;;;;;13.11;48.99;95338.25;5116694;28;20715;-67
2022/05/08 08:06:14;;;;;;;3.90;3.42;;;;;;;13.24;48.00;95339.75;5117652;28;20179;-71
2022/05/08 08:08:41;;;;;;;5.72;3.75;;;;;;;13.43;47.06;95342.53;5116994;28;20183;-65
2022/05/08 08:11:10;;;;;;;5.00;3.60;;;;;;;13.51;47.12;95337.13;5116395;28;20200;-69
2022/05/08 08:13:39;;;;;;;5.20;4.30;;;;;;;13.46;46.35;95339.03;5116502;28;20180;-67
2022/05/08 08:16:09;;;;;;;5.55;4.70;;;;;;;13.55;47.13;95344.38;5116666;28;20199;-67
2022/05/08 08:18:42;;;;;;;4.22;3.83;;;;;;;13.62;46.05;95333.44;5116412;28;20266;-69
2022/05/08 08:21:17;;;;;;;9.05;4.40;;;;;;;13.67;46.73;95332.31;5115855;28;20179;-69
2022/05/08 08:23:49;;;;;;;6.03;3.97;;;;;;;13.87;48.45;95325.59;5116364;28;20504;-67
2022/05/08 08:26:17;;;;;;;7.63;4.30;;;;;;;14.20;48.98;95332.53;5116809;28;20180;-69
2022/05/08 08:28:44;;;;;;;5.35;4.20;;;;;;;14.35;46.31;95333.56;5116603;28;20199;-68
2022/05/08 08:31:11;;;;;;;4.63;4.07;;;;;;;14.59;47.26;95321.28;5116969;28;20207;-67
2022/05/08 08:33:39;;;;;;;6.82;4.38;;;;;;;14.79;47.32;95322.00;5116198;28;20207;-67
2022/05/08 08:36:07;;;;;;;5.15;3.92;;;;;;;14.89;47.21;95316.59;5115883;28;20277;-67
2022/05/08 08:38:35;;;;;;;11.63;4.43;;;;;;;15.00;46.41;95319.53;5116730;28;20254;-67
2022/05/08 08:41:04;;;;;;;4.22;3.85;;;;;;;15.18;45.03;95322.56;5116886;28;20198;-67
2022/05/08 08:47:42;;;;;;;4.65;3.88;;;;;;;15.30;44.94;95305.63;5115670;28;20206;-67
2022/05/08 08:49:10;;;;;;;5.10;3.63;;;;;;;15.31;44.18;95301.66;5116318;28;20333;-67
2022/05/08 08:51:39;;;;;;;4.78;3.65;;;;;;;15.54;46.65;95309.91;5117839;28;20192;-67
2022/05/08 08:54:08;;;;;;;3.85;3.30;;;;;;;15.74;44.50;95298.63;5117192;28;20180;-67
2022/05/08 08:56:36;;;;;;;4.90;3.75;;;;;;;15.86;48.34;95295.56;5115555;28;20220;-69
2022/05/08 08:59:04;;;;;;;5.05;3.50;;;;;;;16.02;41.84;95301.72;5115340;28;20203;-69
2022/05/08 09:01:33;;;;;;;6.00;3.78;;;;;;;16.05;46.21;95294.56;5115617;28;20183;-67
2022/05/08 09:04:00;;;;;;;4.75;3.50;;;;;;;16.17;41.85;95293.50;5115959;28;20195;-68
2022/05/08 09:06:38;;;;;;;5.50;3.50;;;;;;;16.18;40.91;95298.69;5116106;28;20188;-68
2022/05/08 09:09:22;;;;;;;4.28;3.88;;;;;;;16.13;41.88;95282.34;5117166;28;20184;-68
2022/05/08 09:11:49;;;;;;;4.32;3.20;;;;;;;16.50;41.87;95290.59;5116320;28;20195;-68
2022/05/08 09:14:28;;;;;;;3.67;3.30;;;;;;;16.54;40.73;95291.44;5115656;28;20649;-68
2022/05/08 09:16:56;;;;;;;3.58;3.10;;;;;;;16.58;39.52;95283.09;5115832;28;20219;-68
2022/05/08 09:19:34;;;;;;;4.40;3.55;;;;;;;16.65;40.59;95274.81;5117136;28;20203;-68
2022/05/08 09:22:03;;;;;;;4.78;3.50;;;;;;;16.77;39.26;95270.94;5116929;28;20274;-68
2022/05/08 09:24:32;;;;;;;4.10;3.50;;;;;;;16.96;38.50;95283.81;5115653;28;20676;-68
2022/05/08 09:27:13;;;;;;;4.72;3.20;;;;;;;16.84;38.47;95273.75;5116765;28;20198;-68
2022/05/08 09:30:07;;;;;;;5.15;3.53;;;;;;;16.87;39.72;95278.56;5115735;28;20196;-69
2022/05/08 09:32:35;;;;;;;3.70;3.20;;;;;;;16.94;38.71;95277.81;5117017;28;20180;-68
2022/05/08 09:35:03;;;;;;;4.60;3.42;;;;;;;17.03;37.43;95273.50;5116012;28;20196;-68
2022/05/08 09:37:33;;;;;;;4.38;3.25;;;;;;;17.22;38.16;95266.03;5116524;28;20208;-68
2022/05/08 09:40:29;;;;;;;4.18;3.10;;;;;;;17.32;37.61;95268.88;5115975;28;20250;-68
2022/05/08 09:42:59;;;;;;;5.53;3.22;;;;;;;17.41;36.62;95268.50;5107416;28;20218;-68
2022/05/08 09:45:26;;;;;;;3.55;3.00;;;;;;;17.64;37.46;95259.78;5116057;28;20203;-68
2022/05/08 09:47:53;;;;;;;2.70;2.50;;;;;;;17.76;32.90;95261.47;5116399;28;20188;-68
2022/05/08 09:50:21;;;;;;;3.45;2.35;;;;;;;17.86;28.51;95249.53;5116181;28;20202;-68
2022/05/08 09:52:47;;;;;;;2.28;2.15;;;;;;;17.99;27.19;95252.75;5116464;28;20233;-68
2022/05/08 09:55:15;;;;;;;4.70;2.50;;;;;;;18.04;29.59;95247.56;5119581;28;20196;-68
2022/05/08 09:57:44;;;;;;;4.28;2.60;;;;;;;18.15;30.75;95247.56;5119956;28;20658;-68
2022/05/08 10:00:12;;;;;;;3.58;2.10;;;;;;;18.26;27.24;95244.78;5120874;28;20196;-68
2022/05/08 10:02:39;;;;;;;3.03;2.30;;;;;;;18.38;27.98;95238.03;5119378;28;20214;-68
2022/05/08 10:05:08;;;;;;;4.07;2.42;;;;;;;18.51;30.22;95236.41;5119248;28;20199;-68
2022/05/08 10:07:35;;;;;;;2.60;2.40;;;;;;;18.53;28.28;95234.03;5119236;28;20194;-69
2022/05/08 10:15:48;;;;;;;3.00;2.58;;;;;;;18.80;28.44;95231.59;5118124;28;20188;-68
2022/05/08 10:18:26;;;;;;;3.33;2.40;;;;;;;18.84;29.67;95224.00;5101158;28;20203;-68
2022/05/08 10:21:04;;;;;;;3.83;2.58;;;;;;;19.04;29.97;95224.38;5119212;28;20264;-67
2022/05/08 10:23:37;;;;;;;3.15;2.70;;;;;;;19.07;28.78;95220.78;5119161;28;20191;-67
2022/05/08 10:26:24;;;;;;;2.92;2.72;;;;;;;19.04;28.64;95213.19;5118064;28;20210;-67
2022/05/08 10:29:12;;;;;;;2.45;2.25;;;;;;;19.14;27.43;95208.78;5119352;28;20512;-69
2022/05/08 10:31:47;;;;;;;3.28;2.60;;;;;;;19.11;27.84;95206.78;5119144;28;20218;-67
2022/05/08 10:34:14;;;;;;;3.50;2.80;;;;;;;19.14;29.05;95203.97;5119171;28;20205;-67
2022/05/08 10:37:16;;;;;;;2.70;2.50;;;;;;;19.30;27.65;95199.91;5117773;28;20226;-67
2022/05/08 10:39:44;;;;;;;2.40;2.20;;;;;;;19.36;26.37;95198.28;5116868;28;20227;-67
2022/05/08 10:42:43;;;;;;;3.08;2.10;;;;;;;19.28;26.43;95196.72;5118645;28;20188;-67
2022/05/08 10:45:40;;;;;;;2.97;2.20;;;;;;;19.43;27.23;95201.06;5118473;28;20296;-67
2022/05/08 10:48:20;;;;;;;2.60;2.35;;;;;;;19.59;28.11;95192.97;5118350;28;20512;-67
2022/05/08 10:50:48;;;;;;;2.75;2.25;;;;;;;19.68;26.65;95186.94;5117460;28;20226;-67
2022/05/08 10:53:26;;;;;;;3.17;2.30;;;;;;;19.84;26.69;95178.84;5117501;28;20209;-68
2022/05/08 10:55:58;;;;;;;3.65;2.63;;;;;;;19.95;28.28;95176.78;5118502;28;20203;-67
2022/05/08 10:58:24;;;;;;;3.03;2.80;;;;;;;20.05;27.33;95166.72;5116930;28;20200;-68
2022/05/08 11:00:56;;;;;;;2.95;2.60;;;;;;;20.08;28.52;95173.47;5117523;28;20204;-68
2022/05/08 11:03:23;;;;;;;2.85;2.60;;;;;;;20.28;27.92;95171.72;5116726;28;20191;-68
2022/05/08 11:05:52;;;;;;;2.78;2.55;;;;;;;20.16;27.75;95167.41;5117046;28;20206;-67
2022/05/08 11:08:24;;;;;;;3.50;2.65;;;;;;;20.28;27.92;95162.53;5116959;28;20221;-67
2022/05/08 11:10:57;;;;;;;30.17;6.72;;;;;;;20.28;28.79;95165.31;5117293;28;20195;-68
2022/05/08 11:13:27;;;;;;;3.47;2.30;;;;;;;20.39;26.49;95168.81;5117872;28;20176;-68
2022/05/08 11:15:55;;;;;;;12.18;3.40;;;;;;;20.38;28.04;95170.03;5117353;28;20279;-69
2022/05/08 11:18:23;;;;;;;4.00;2.92;;;;;;;20.43;27.01;95156.38;5117695;28;20220;-69
2022/05/08 11:20:53;;;;;;;4.55;3.00;;;;;;;20.54;29.50;95155.50;5117727;28;20207;-68
2022/05/08 11:23:21;;;;;;;3.08;2.78;;;;;;;20.60;29.50;95159.44;5116753;28;20196;-68
2022/05/08 11:25:49;;;;;;;2.92;2.60;;;;;;;20.64;28.31;95152.59;5116853;28;20206;-68
2022/05/08 11:28:17;;;;;;;2.63;2.42;;;;;;;20.76;27.33;95147.66;5117283;28;20184;-67
2022/05/08 11:30:46;;;;;;;2.63;2.42;;;;;;;20.67;27.21;95150.97;5117324;28;20285;-68
2022/05/08 11:36:07;;;;;;;3.17;2.88;;;;;;;20.90;28.66;95136.28;5060281;28;20210;-67
2022/05/08 11:38:44;;;;;;;3.00;2.80;;;;;;;20.88;27.79;95141.53;5099700;28;20318;-67
2022/05/08 11:41:11;;;;;;;3.75;2.60;;;;;;;20.89;26.21;95131.91;5116761;28;20195;-67
2022/05/08 11:43:40;;;;;;;4.40;2.88;;;;;;;20.99;26.98;95139.41;5116185;28;20203;-67
2022/05/08 11:46:08;;;;;;;2.70;2.50;;;;;;;21.06;27.44;95135.69;5117170;28;20195;-67
2022/05/08 11:48:40;;;;;;;3.97;2.92;;;;;;;21.03;27.07;95136.56;5116845;28;20248;-68
2022/05/08 11:51:08;;;;;;;2.60;2.40;;;;;;;20.97;26.49;95133.41;5117619;28;20195;-68
2022/05/08 11:53:45;;;;;;;3.78;2.50;;;;;;;21.02;27.89;95135.72;5116957;27;20186;-67
2022/05/08 11:56:29;;;;;;;5.88;2.50;;;;;;;20.91;24.46;95124.69;5116813;28;20260;-67
2022/05/08 11:58:57;;;;;;;2.50;2.40;;;;;;;20.98;25.75;95128.59;5116198;28;20195;-68
2022/05/08 12:01:25;;;;;;;3.17;2.88;;;;;;;21.12;25.89;95123.59;5116352;28;20187;-68
2022/05/08 12:03:54;;;;;;;3.33;2.72;;;;;;;21.33;26.86;95125.38;5115589;28;20191;-69
2022/05/08 12:06:22;;;;;;;2.80;2.60;;;;;;;21.44;26.21;95121.63;5116492;28;20190;-69
2022/05/08 12:08:49;;;;;;;3.78;2.45;;;;;;;21.46;25.66;95116.38;5117624;28;20253;-68
2022/05/08 12:11:35;;;;;;;3.97;2.65;;;;;;;21.35;25.25;95111.72;5116657;28;20206;-67
2022/05/08 12:14:10;;;;;;;2.95;2.47;;;;;;;21.35;24.70;95113.72;5117546;28;20188;-66